Drew Plt, Maine
Current Conditions -  °F | °C
As of 7:23 PM on Wednesday 26 Nov 2014 (Local Time) from KHUL Reporting Station
Light Snow Light Snow  
Wind Chill: 21°   Ceiling: 900
Heat Index: 30°   Visibility: 0.75mi
Dew Point: 28°   Wind: 10mph
Humidity: 92%   Direction: 10°N
Pressure: 30.09"   Gusts: NA
Location:  45.7877°N, 68.0764°W
Report Text: KHUL 270023Z AUTO 01009KT 3/4SM -SN BR VV009 M01/M02 A3009 RMK AO2 P0001 T10111022
Loading
Personal Weather Stations






























Interactive Weather Map New forecast layout! Learn more

10-Day Weather Forecast

Advertisements
Track Severe Weather on mobile